Time;durP1;ratioP1;P1;durP2;ratioP2;P2;SDS_P1;SDS_P2;PMS_P1;PMS_P2;Temp;Humidity;BMP_temperature;BMP_pressure;BME280_temperature;BME280_humidity;BME280_pressure;Samples;Min_cycle;Max_cycle;Signal;HPM_P1;HPM_P2
2024/01/13 00:04:38;;;;;;;0.50;0.50;;;0.60;93.80;;;;;;10543756;28;20241;-79
2024/01/13 00:09:42;;;;;;;0.30;0.30;;;0.60;93.70;;;;;;10546461;28;20826;-79
2024/01/13 00:14:44;;;;;;;0.40;0.40;;;0.60;94.00;;;;;;10543398;28;20714;-79
2024/01/13 00:19:47;;;;;;;0.40;0.40;;;0.60;93.80;;;;;;10551884;28;20219;-80
2024/01/13 00:24:50;;;;;;;0.50;0.50;;;0.50;93.90;;;;;;10549989;28;20196;-78
2024/01/13 00:29:53;;;;;;;0.40;0.40;;;0.50;94.10;;;;;;10549120;28;20226;-79
2024/01/13 00:34:55;;;;;;;0.40;0.40;;;0.50;94.40;;;;;;10549115;28;20219;-79
2024/01/13 00:39:59;;;;;;;0.40;0.40;;;0.60;94.00;;;;;;10549682;28;20226;-79
2024/01/13 00:45:04;;;;;;;0.30;0.30;;;0.60;94.20;;;;;;10549716;28;20203;-79
2024/01/13 00:50:07;;;;;;;0.40;0.40;;;0.60;94.10;;;;;;10548663;28;20255;-78
2024/01/13 00:55:11;;;;;;;0.40;0.40;;;0.70;94.10;;;;;;10525777;28;20200;-79
2024/01/13 01:00:14;;;;;;;0.30;0.30;;;0.70;93.80;;;;;;10545307;28;20701;-79
2024/01/13 01:05:17;;;;;;;0.30;0.30;;;0.70;93.90;;;;;;10547731;28;20545;-79
2024/01/13 01:10:21;;;;;;;0.33;0.33;;;0.70;94.00;;;;;;10545805;28;20677;-79
2024/01/13 01:15:23;;;;;;;0.30;0.30;;;0.70;93.90;;;;;;10540382;28;20196;-78
2024/01/13 01:20:26;;;;;;;0.30;0.30;;;0.70;93.70;;;;;;10544354;28;20223;-78
2024/01/13 01:25:29;;;;;;;0.40;0.40;;;0.70;93.60;;;;;;10546651;28;20810;-79
2024/01/13 01:30:32;;;;;;;0.30;0.30;;;0.70;93.30;;;;;;10545516;28;20257;-79
2024/01/13 01:35:34;;;;;;;0.40;0.40;;;0.70;93.50;;;;;;10543781;28;20521;-78
2024/01/13 01:40:40;;;;;;;0.30;0.30;;;0.70;93.60;;;;;;10528028;28;20227;-78
2024/01/13 01:45:42;;;;;;;0.30;0.30;;;0.70;93.60;;;;;;10545868;28;20532;-79
2024/01/13 01:50:45;;;;;;;0.37;0.37;;;0.60;93.50;;;;;;10547027;28;20222;-78
2024/01/13 01:55:49;;;;;;;0.30;0.30;;;0.60;93.30;;;;;;10525312;28;20265;-78
2024/01/13 02:00:52;;;;;;;0.30;0.30;;;0.50;93.40;;;;;;10542413;28;20228;-79
2024/01/13 02:05:58;;;;;;;0.30;0.30;;;0.50;93.80;;;;;;10543638;28;20726;-79
2024/01/13 02:11:01;;;;;;;0.30;0.30;;;0.60;93.60;;;;;;10544487;28;20604;-79
2024/01/13 02:16:05;;;;;;;0.33;0.33;;;0.60;93.60;;;;;;10544104;28;20203;-79
2024/01/13 02:21:07;;;;;;;0.30;0.30;;;0.60;93.80;;;;;;10544154;28;20231;-78
2024/01/13 02:26:11;;;;;;;0.40;0.40;;;0.60;94.10;;;;;;10544753;28;20195;-79
2024/01/13 02:31:14;;;;;;;0.40;0.40;;;0.70;94.00;;;;;;10544145;28;20215;-79
2024/01/13 02:36:16;;;;;;;0.40;0.40;;;0.70;94.10;;;;;;10545385;28;20217;-79
2024/01/13 02:41:20;;;;;;;0.40;0.40;;;0.70;93.80;;;;;;10525379;28;20228;-79
2024/01/13 02:46:22;;;;;;;0.30;0.30;;;0.70;93.90;;;;;;10544618;28;20200;-79
2024/01/13 02:51:24;;;;;;;0.30;0.30;;;0.70;93.90;;;;;;10545001;28;20257;-79
2024/01/13 02:56:28;;;;;;;0.40;0.40;;;0.70;94.20;;;;;;10544875;28;20250;-79
2024/01/13 03:01:31;;;;;;;0.40;0.40;;;0.70;93.90;;;;;;10545122;28;20700;-78
2024/01/13 03:06:33;;;;;;;0.40;0.40;;;0.70;94.00;;;;;;10548581;28;20235;-79
2024/01/13 03:11:37;;;;;;;0.40;0.40;;;0.70;93.90;;;;;;10549388;28;20246;-79
2024/01/13 03:16:39;;;;;;;0.40;0.40;;;0.70;93.90;;;;;;10545627;28;20203;-79
2024/01/13 03:21:42;;;;;;;0.40;0.40;;;0.70;93.90;;;;;;10562547;28;20260;-79
2024/01/13 03:26:46;;;;;;;0.40;0.40;;;0.70;94.00;;;;;;10569229;28;20700;-78
2024/01/13 03:31:48;;;;;;;0.30;0.30;;;0.80;94.10;;;;;;10556286;28;20211;-78
2024/01/13 03:36:50;;;;;;;0.30;0.30;;;0.80;94.00;;;;;;10538684;28;20211;-78
2024/01/13 03:41:54;;;;;;;0.30;0.30;;;0.80;94.10;;;;;;10536715;28;20215;-79
2024/01/13 03:46:56;;;;;;;0.40;0.40;;;0.90;94.00;;;;;;10542127;28;20207;-78
2024/01/13 03:51:59;;;;;;;0.40;0.40;;;0.90;93.80;;;;;;10547963;28;20689;-78
2024/01/13 03:57:02;;;;;;;0.30;0.30;;;0.90;93.60;;;;;;10547085;28;20215;-78
2024/01/13 04:02:05;;;;;;;0.50;0.50;;;0.90;93.60;;;;;;10546227;22;20243;-81
2024/01/13 04:07:07;;;;;;;0.60;0.60;;;0.80;93.70;;;;;;10549097;28;20199;-79
2024/01/13 04:12:12;;;;;;;0.50;0.50;;;0.80;93.80;;;;;;10534608;28;20690;-79
2024/01/13 04:17:14;;;;;;;0.60;0.60;;;0.90;93.90;;;;;;10513394;28;20228;-79
2024/01/13 04:22:16;;;;;;;0.60;0.60;;;0.90;93.90;;;;;;10502198;28;20229;-78
2024/01/13 04:27:20;;;;;;;0.57;0.57;;;0.90;93.70;;;;;;10510682;28;20192;-80
2024/01/13 04:32:22;;;;;;;0.50;0.50;;;0.80;93.50;;;;;;10493229;28;20602;-80
2024/01/13 04:37:25;;;;;;;0.60;0.60;;;0.70;93.40;;;;;;10517225;28;20211;-79
2024/01/13 04:42:31;;;;;;;0.53;0.53;;;0.70;93.40;;;;;;10511941;28;20220;-78
2024/01/13 04:47:33;;;;;;;0.50;0.50;;;0.60;93.40;;;;;;10508650;28;20222;-80
2024/01/13 04:52:37;;;;;;;0.50;0.50;;;0.60;93.60;;;;;;10536894;28;20208;-80
2024/01/13 04:57:41;;;;;;;0.60;0.60;;;0.60;93.70;;;;;;10509048;28;20220;-80
2024/01/13 05:02:43;;;;;;;0.50;0.50;;;0.60;93.60;;;;;;10495941;28;20228;-81
2024/01/13 05:07:46;;;;;;;0.60;0.60;;;0.50;93.50;;;;;;10505164;28;20230;-80
2024/01/13 05:12:49;;;;;;;0.50;0.50;;;0.40;93.60;;;;;;10522136;28;20231;-80
2024/01/13 05:17:52;;;;;;;0.53;0.53;;;0.40;94.20;;;;;;10540246;28;20221;-80
2024/01/13 05:22:54;;;;;;;0.50;0.50;;;0.50;94.20;;;;;;10512873;28;20209;-79
2024/01/13 05:27:58;;;;;;;0.60;0.60;;;0.50;94.10;;;;;;10541266;28;20369;-80
2024/01/13 05:33:00;;;;;;;0.60;0.60;;;0.50;94.10;;;;;;10525289;28;20625;-80
2024/01/13 05:38:03;;;;;;;0.60;0.60;;;0.50;94.10;;;;;;10507724;28;20200;-79
2024/01/13 05:43:07;;;;;;;0.47;0.47;;;0.50;94.20;;;;;;10505269;28;20303;-79
2024/01/13 05:48:10;;;;;;;0.40;0.40;;;0.60;94.40;;;;;;10520252;28;20207;-79
2024/01/13 05:53:12;;;;;;;0.40;0.40;;;0.70;94.40;;;;;;10511388;28;20754;-80
2024/01/13 05:58:16;;;;;;;0.40;0.40;;;0.70;94.40;;;;;;10509217;28;20325;-80
2024/01/13 06:03:19;;;;;;;0.40;0.40;;;0.80;94.20;;;;;;10492915;28;20215;-79
2024/01/13 06:08:21;;;;;;;0.50;0.50;;;0.80;93.90;;;;;;10512770;28;20246;-80
2024/01/13 06:13:25;;;;;;;0.60;0.60;;;0.80;94.00;;;;;;10516059;28;20214;-79
2024/01/13 06:18:27;;;;;;;0.50;0.50;;;0.90;94.10;;;;;;10517906;28;20701;-80
2024/01/13 06:23:30;;;;;;;0.20;0.20;;;0.90;93.70;;;;;;10498634;28;20196;-79
2024/01/13 06:28:33;;;;;;;0.50;0.50;;;0.90;93.70;;;;;;10513797;28;20265;-80
2024/01/13 06:33:36;;;;;;;0.50;0.50;;;0.90;93.80;;;;;;10520082;28;20205;-79
2024/01/13 06:38:38;;;;;;;0.50;0.50;;;0.90;93.70;;;;;;10506978;28;20588;-80
2024/01/13 06:43:42;;;;;;;0.40;0.40;;;0.90;93.80;;;;;;10490502;28;20185;-82
2024/01/13 06:48:45;;;;;;;0.50;0.50;;;0.90;93.50;;;;;;10503975;28;20277;-80
2024/01/13 06:53:47;;;;;;;0.40;0.40;;;0.90;93.40;;;;;;10524059;28;20548;-78
2024/01/13 06:58:51;;;;;;;0.40;0.40;;;0.90;93.40;;;;;;10505859;28;20253;-79
2024/01/13 07:03:53;;;;;;;0.40;0.40;;;0.90;93.60;;;;;;10521859;28;20200;-79
2024/01/13 07:08:57;;;;;;;0.40;0.40;;;0.90;93.50;;;;;;10530560;28;20222;-78
2024/01/13 07:14:01;;;;;;;0.50;0.50;;;1.00;93.30;;;;;;10523202;28;20274;-80
2024/01/13 07:19:03;;;;;;;0.40;0.40;;;1.00;93.20;;;;;;10512747;28;20224;-79
2024/01/13 07:24:08;;;;;;;0.10;0.10;;;1.00;93.40;;;;;;10541185;28;20738;-78
2024/01/13 07:29:12;;;;;;;0.50;0.50;;;1.00;93.40;;;;;;10514912;28;20227;-80
2024/01/13 07:34:15;;;;;;;0.40;0.40;;;0.90;92.70;;;;;;10500313;28;20242;-81
2024/01/13 07:39:17;;;;;;;0.50;0.50;;;0.80;92.70;;;;;;10487920;28;20224;-80
2024/01/13 07:44:21;;;;;;;0.40;0.40;;;0.70;92.80;;;;;;10519993;28;20200;-80
2024/01/13 07:49:23;;;;;;;0.47;0.47;;;0.70;92.70;;;;;;10493678;28;20215;-79
2024/01/13 07:54:25;;;;;;;0.27;0.27;;;0.70;93.10;;;;;;10508106;28;20196;-80
2024/01/13 07:59:29;;;;;;;0.40;0.40;;;0.80;92.90;;;;;;10511596;28;20227;-79
2024/01/13 08:04:31;;;;;;;0.30;0.30;;;0.80;92.90;;;;;;10514329;28;20193;-79
2024/01/13 08:09:34;;;;;;;0.40;0.40;;;0.80;93.10;;;;;;10477351;28;20661;-79
2024/01/13 08:14:37;;;;;;;0.40;0.40;;;0.80;92.70;;;;;;10502419;28;20204;-79
2024/01/13 08:19:40;;;;;;;0.40;0.40;;;0.80;92.60;;;;;;10512100;28;20585;-78
2024/01/13 08:24:42;;;;;;;0.40;0.40;;;0.80;92.80;;;;;;10470639;28;20220;-79
2024/01/13 08:29:46;;;;;;;0.30;0.30;;;0.80;92.80;;;;;;10512482;28;20266;-78
2024/01/13 08:34:48;;;;;;;0.33;0.33;;;0.80;92.90;;;;;;10501862;28;20299;-80
2024/01/13 08:39:50;;;;;;;0.40;0.40;;;0.80;92.70;;;;;;10518991;28;20700;-80
2024/01/13 08:44:54;;;;;;;0.40;0.40;;;0.90;92.70;;;;;;10513693;28;20213;-80
2024/01/13 08:49:56;;;;;;;0.40;0.40;;;0.90;92.60;;;;;;10502401;28;20223;-80
2024/01/13 08:54:59;;;;;;;0.10;0.10;;;0.90;92.90;;;;;;10521698;28;20245;-80
2024/01/13 09:00:06;;;;;;;0.40;0.40;;;1.00;92.40;;;;;;10495423;28;20224;-80
2024/01/13 09:05:09;;;;;;;0.33;0.33;;;1.00;92.60;;;;;;10511817;28;20735;-80
2024/01/13 09:10:11;;;;;;;0.27;0.27;;;1.00;92.40;;;;;;10515457;28;20721;-79
2024/01/13 09:15:15;;;;;;;0.20;0.20;;;1.00;92.70;;;;;;10511765;28;20657;-80
2024/01/13 09:20:18;;;;;;;0.20;0.20;;;1.10;92.90;;;;;;10483650;28;20222;-80
2024/01/13 09:25:20;;;;;;;0.20;0.20;;;1.10;92.80;;;;;;10520151;28;20193;-80
2024/01/13 09:30:24;;;;;;;0.10;0.10;;;1.20;92.80;;;;;;10529222;28;20369;-80
2024/01/13 09:35:30;;;;;;;0.10;0.10;;;1.30;92.70;;;;;;10529443;28;20208;-81
2024/01/13 09:40:34;;;;;;;0.30;0.30;;;1.30;92.70;;;;;;10510537;28;20286;-81
2024/01/13 09:45:39;;;;;;;0.10;0.10;;;1.40;92.50;;;;;;10499245;28;20776;-81
2024/01/13 09:50:42;;;;;;;0.20;0.20;;;1.40;92.60;;;;;;10480787;28;20269;-79
2024/01/13 09:55:44;;;;;;;0.30;0.30;;;1.40;92.60;;;;;;10505892;28;20200;-80
2024/01/13 10:00:49;;;;;;;0.27;0.27;;;1.40;92.50;;;;;;10537612;28;20255;-81
2024/01/13 10:05:53;;;;;;;0.30;0.30;;;1.40;92.50;;;;;;10524533;28;20688;-80
2024/01/13 10:10:55;;;;;;;0.30;0.30;;;1.50;92.30;;;;;;10505866;28;20220;-79
2024/01/13 10:15:59;;;;;;;0.30;0.30;;;1.50;92.30;;;;;;10499215;28;20196;-79
2024/01/13 10:21:05;;;;;;;0.20;0.20;;;1.50;92.40;;;;;;10493842;28;20228;-79
2024/01/13 10:26:08;;;;;;;0.20;0.20;;;1.60;92.50;;;;;;10492371;28;20262;-79
2024/01/13 10:31:11;;;;;;;0.30;0.30;;;1.60;92.20;;;;;;10483823;28;20288;-79
2024/01/13 10:36:14;;;;;;;0.23;0.23;;;1.60;92.50;;;;;;10520111;28;20233;-81
2024/01/13 10:41:17;;;;;;;0.10;0.10;;;1.60;92.30;;;;;;10494614;28;20279;-79
2024/01/13 10:46:26;;;;;;;0.10;0.10;;;1.70;92.10;;;;;;10505662;28;20204;-81
2024/01/13 10:51:33;;;;;;;0.20;0.20;;;1.70;92.10;;;;;;10517159;28;20685;-79
2024/01/13 10:56:36;;;;;;;0.10;0.10;;;1.70;92.00;;;;;;10497989;28;20951;-80
2024/01/13 11:01:41;;;;;;;0.20;0.20;;;1.70;91.90;;;;;;10483557;28;20228;-79
2024/01/13 11:06:43;;;;;;;0.10;0.10;;;1.70;92.10;;;;;;10510727;28;20211;-80
2024/01/13 11:11:54;;;;;;;0.20;0.20;;;1.70;92.20;;;;;;10503387;28;20212;-79
2024/01/13 11:16:59;;;;;;;0.10;0.10;;;1.70;92.20;;;;;;10509058;28;20202;-80
2024/01/13 11:22:01;;;;;;;0.20;0.20;;;1.70;92.30;;;;;;10525925;28;20239;-79
2024/01/13 11:27:05;;;;;;;0.30;0.30;;;1.80;92.20;;;;;;10502852;28;20249;-79
2024/01/13 11:32:09;;;;;;;0.20;0.20;;;1.80;92.30;;;;;;10501625;28;20511;-79
2024/01/13 11:37:12;;;;;;;0.20;0.20;;;1.80;92.30;;;;;;10537841;28;20192;-79
2024/01/13 11:42:17;;;;;;;0.20;0.20;;;1.80;91.80;;;;;;10504811;28;20219;-80
2024/01/13 11:47:29;;;;;;;0.10;0.10;;;1.70;91.50;;;;;;10527024;28;20208;-80
2024/01/13 11:52:33;;;;;;;0.20;0.20;;;1.70;92.00;;;;;;10503167;28;20220;-79
2024/01/13 11:57:37;;;;;;;0.20;0.20;;;1.80;92.00;;;;;;10503223;28;20253;-78
2024/01/13 12:02:41;;;;;;;0.23;0.23;;;1.80;92.00;;;;;;10523785;28;20224;-78
2024/01/13 12:07:43;;;;;;;0.20;0.20;;;1.80;92.30;;;;;;10507692;28;20360;-78
2024/01/13 12:12:46;;;;;;;0.30;0.30;;;1.90;92.20;;;;;;10507625;28;20561;-80
2024/01/13 12:17:52;;;;;;;0.00;0.00;;;2.00;92.20;;;;;;10517154;28;20203;-79
2024/01/13 12:22:55;;;;;;;0.00;0.00;;;2.00;92.20;;;;;;10509303;28;20225;-78
2024/01/13 12:27:57;;;;;;;0.00;0.00;;;2.10;92.00;;;;;;10534681;28;20201;-80
2024/01/13 12:33:01;;;;;;;0.20;0.20;;;2.20;91.80;;;;;;10491573;28;20712;-79
2024/01/13 12:38:06;;;;;;;0.20;0.20;;;2.20;91.70;;;;;;10515233;28;20207;-81
2024/01/13 12:43:10;;;;;;;0.20;0.20;;;2.20;92.00;;;;;;10534976;28;20257;-80
2024/01/13 12:48:16;;;;;;;0.20;0.20;;;2.20;91.80;;;;;;10509851;28;20200;-81
2024/01/13 12:53:26;;;;;;;0.10;0.10;;;2.20;91.70;;;;;;10529275;28;20225;-80
2024/01/13 12:58:28;;;;;;;0.30;0.30;;;2.30;91.10;;;;;;10510035;28;20233;-81
2024/01/13 13:03:33;;;;;;;0.20;0.20;;;2.30;91.50;;;;;;10507407;28;20771;-78
2024/01/13 13:08:35;;;;;;;0.13;0.13;;;2.30;91.20;;;;;;10490994;28;20823;-80
2024/01/13 13:13:38;;;;;;;0.20;0.20;;;2.30;91.20;;;;;;10520089;28;20816;-79
2024/01/13 13:18:42;;;;;;;0.20;0.20;;;2.30;91.20;;;;;;10529114;28;20666;-80
2024/01/13 13:23:44;;;;;;;0.20;0.20;;;2.30;91.40;;;;;;10484218;28;20220;-80
2024/01/13 13:28:47;;;;;;;0.20;0.20;;;2.20;91.70;;;;;;10529721;28;20697;-81
2024/01/13 13:33:51;;;;;;;0.30;0.30;;;2.30;91.70;;;;;;10514130;28;20287;-81
2024/01/13 13:38:53;;;;;;;0.20;0.20;;;2.30;91.80;;;;;;10519646;28;20242;-80
2024/01/13 13:43:55;;;;;;;0.27;0.27;;;2.30;91.70;;;;;;10511532;28;20693;-80
2024/01/13 13:48:59;;;;;;;0.30;0.30;;;2.30;91.80;;;;;;10530234;28;20705;-80
2024/01/13 13:54:02;;;;;;;0.10;0.10;;;2.40;91.60;;;;;;10523097;28;20674;-81
2024/01/13 13:59:04;;;;;;;0.30;0.30;;;2.40;91.60;;;;;;10496752;28;20219;-80
2024/01/13 14:04:08;;;;;;;0.27;0.27;;;2.30;91.70;;;;;;10527097;28;20228;-78
2024/01/13 14:09:11;;;;;;;0.00;0.00;;;2.40;91.70;;;;;;10522671;28;20232;-80
2024/01/13 14:14:13;;;;;;;0.30;0.30;;;2.30;91.70;;;;;;10518867;28;20208;-80
2024/01/13 14:19:17;;;;;;;0.30;0.30;;;2.30;91.60;;;;;;10488152;28;20211;-80
2024/01/13 14:24:19;;;;;;;0.17;0.17;;;2.30;91.80;;;;;;10503911;28;20794;-81
2024/01/13 14:29:22;;;;;;;0.10;0.10;;;2.30;91.70;;;;;;10493205;28;20212;-80
2024/01/13 14:34:26;;;;;;;0.40;0.40;;;2.30;91.70;;;;;;10505734;28;20196;-80
2024/01/13 14:39:28;;;;;;;0.20;0.20;;;2.30;91.40;;;;;;10497281;28;20216;-81
2024/01/13 14:44:30;;;;;;;0.40;0.40;;;2.30;91.60;;;;;;10503953;28;20269;-80
2024/01/13 14:49:34;;;;;;;0.43;0.43;;;2.30;91.50;;;;;;10498945;28;20571;-80
2024/01/13 14:54:36;;;;;;;0.30;0.30;;;2.30;91.50;;;;;;10504570;28;20266;-78
2024/01/13 14:59:39;;;;;;;0.43;0.43;;;2.30;91.20;;;;;;10496640;28;20232;-80
2024/01/13 15:04:43;;;;;;;0.30;0.30;;;2.30;91.30;;;;;;10497785;28;20220;-81
2024/01/13 15:09:45;;;;;;;0.40;0.40;;;2.20;91.50;;;;;;10502332;28;20243;-80
2024/01/13 15:14:48;;;;;;;0.30;0.30;;;2.20;91.40;;;;;;10505222;28;20575;-80
2024/01/13 15:19:51;;;;;;;0.40;0.40;;;2.20;91.30;;;;;;10490222;28;20224;-81
2024/01/13 15:24:54;;;;;;;0.33;0.33;;;2.20;91.10;;;;;;10496784;28;20401;-81
2024/01/13 15:30:02;;;;;;;0.27;0.27;;;2.10;91.20;;;;;;10507142;28;20602;-80
2024/01/13 15:35:09;;;;;;;0.30;0.30;;;2.20;91.00;;;;;;10518038;28;20200;-79
2024/01/13 15:40:12;;;;;;;0.40;0.40;;;2.10;91.20;;;;;;10512546;28;20251;-80
2024/01/13 15:45:14;;;;;;;0.30;0.30;;;2.10;91.10;;;;;;10491174;28;20206;-81
2024/01/13 15:50:18;;;;;;;0.40;0.40;;;2.00;91.20;;;;;;10511138;28;20231;-79
2024/01/13 15:55:21;;;;;;;0.40;0.40;;;1.90;91.30;;;;;;10523509;28;20211;-80
2024/01/13 16:00:23;;;;;;;0.23;0.23;;;1.80;91.40;;;;;;10513963;28;20228;-80
2024/01/13 16:05:27;;;;;;;0.40;0.40;;;1.90;91.30;;;;;;10484264;28;20188;-79
2024/01/13 16:10:30;;;;;;;0.50;0.50;;;1.80;91.60;;;;;;10509737;28;20216;-78
2024/01/13 16:15:32;;;;;;;0.40;0.40;;;1.80;91.80;;;;;;10480635;28;20193;-79
2024/01/13 16:20:36;;;;;;;0.40;0.40;;;1.90;92.00;;;;;;10501410;28;20289;-79
2024/01/13 16:25:39;;;;;;;0.30;0.30;;;1.90;92.00;;;;;;10501353;28;20205;-78
2024/01/13 16:30:42;;;;;;;0.30;0.30;;;1.80;92.30;;;;;;10481844;28;20220;-79
2024/01/13 16:35:46;;;;;;;0.40;0.40;;;1.80;92.60;;;;;;10501893;28;20344;-79
2024/01/13 16:40:49;;;;;;;0.30;0.30;;;1.80;92.80;;;;;;10508945;28;20347;-78
2024/01/13 16:45:51;;;;;;;0.40;0.40;;;1.80;92.80;;;;;;10502330;28;20196;-79
2024/01/13 16:50:55;;;;;;;0.10;0.10;;;1.70;92.90;;;;;;10501555;28;20289;-80
2024/01/13 16:55:57;;;;;;;0.40;0.40;;;1.70;92.80;;;;;;10528452;22;20223;-83
2024/01/13 17:01:00;;;;;;;0.40;0.40;;;1.70;92.90;;;;;;10515556;28;20216;-82
2024/01/13 17:06:04;;;;;;;0.40;0.40;;;1.70;93.00;;;;;;10506214;28;20294;-80
2024/01/13 17:11:07;;;;;;;0.30;0.30;;;1.70;92.90;;;;;;10482862;28;20553;-81
2024/01/13 17:16:11;;;;;;;0.27;0.27;;;1.70;93.00;;;;;;10475260;28;20568;-83
2024/01/13 17:21:15;;;;;;;0.20;0.20;;;1.70;92.80;;;;;;10478186;28;20216;-84
2024/01/13 17:26:17;;;;;;;0.30;0.30;;;1.70;92.80;;;;;;10479633;28;20634;-84
2024/01/13 17:31:20;;;;;;;0.30;0.30;;;1.70;92.90;;;;;;10481648;28;20202;-83
2024/01/13 17:36:24;;;;;;;0.30;0.30;;;1.70;93.00;;;;;;10461421;28;20235;-81
2024/01/13 17:41:28;;;;;;;0.40;0.40;;;1.60;92.90;;;;;;10481261;28;20255;-81
2024/01/13 17:46:30;;;;;;;0.30;0.30;;;1.60;93.20;;;;;;10482853;28;20220;-82
2024/01/13 17:51:34;;;;;;;0.40;0.40;;;1.60;92.90;;;;;;10489497;28;20224;-82
2024/01/13 17:56:36;;;;;;;0.30;0.30;;;1.60;93.00;;;;;;10483099;28;20227;-82
2024/01/13 18:01:39;;;;;;;0.40;0.40;;;1.60;92.90;;;;;;10482161;28;20569;-82
2024/01/13 18:06:42;;;;;;;0.50;0.50;;;1.50;92.80;;;;;;10476011;28;20224;-81
2024/01/13 18:11:45;;;;;;;0.40;0.40;;;1.50;92.80;;;;;;10464556;28;20201;-84
2024/01/13 18:16:47;;;;;;;0.37;0.37;;;1.50;92.80;;;;;;10463695;28;20221;-82
2024/01/13 18:21:51;;;;;;;0.50;0.50;;;1.40;92.80;;;;;;10475831;28;20239;-81
2024/01/13 18:26:53;;;;;;;0.30;0.30;;;1.40;92.80;;;;;;10462334;28;20699;-81
2024/01/13 18:31:55;;;;;;;0.40;0.40;;;1.40;93.00;;;;;;10456934;28;20204;-82
2024/01/13 18:36:59;;;;;;;0.40;0.40;;;1.40;92.80;;;;;;10470964;28;20217;-82
2024/01/13 18:42:01;;;;;;;0.40;0.40;;;1.40;93.10;;;;;;10474926;28;20635;-82
2024/01/13 18:47:04;;;;;;;0.40;0.40;;;1.30;93.00;;;;;;10481108;28;20220;-82
2024/01/13 18:52:08;;;;;;;0.43;0.43;;;1.40;93.20;;;;;;10473408;28;20201;-81
2024/01/13 18:57:12;;;;;;;0.50;0.50;;;1.30;93.00;;;;;;10474972;28;20229;-80
2024/01/13 19:02:15;;;;;;;0.40;0.40;;;1.40;93.00;;;;;;10477281;28;20216;-83
2024/01/13 19:07:20;;;;;;;0.30;0.30;;;1.40;92.90;;;;;;10478179;28;20217;-82
2024/01/13 19:12:23;;;;;;;0.30;0.30;;;1.40;92.80;;;;;;10478281;28;20196;-83
2024/01/13 19:17:25;;;;;;;0.40;0.40;;;1.40;92.80;;;;;;10470950;28;20689;-80
2024/01/13 19:22:29;;;;;;;0.20;0.20;;;1.40;92.60;;;;;;10462857;28;20213;-81
2024/01/13 19:27:31;;;;;;;0.10;0.10;;;1.40;92.60;;;;;;10461184;28;20263;-82
2024/01/13 19:32:34;;;;;;;0.20;0.20;;;1.30;92.70;;;;;;10462187;28;20197;-82
2024/01/13 19:37:39;;;;;;;0.40;0.40;;;1.30;92.60;;;;;;10471065;28;20224;-80
2024/01/13 19:42:42;;;;;;;0.30;0.30;;;1.30;92.70;;;;;;10478927;28;20720;-80
2024/01/13 19:47:44;;;;;;;0.33;0.33;;;1.30;92.60;;;;;;10440122;28;20229;-81
2024/01/13 19:52:48;;;;;;;0.37;0.37;;;1.30;92.60;;;;;;10473388;28;20203;-80
2024/01/13 19:57:50;;;;;;;0.30;0.30;;;1.30;93.00;;;;;;10469385;28;20241;-82
2024/01/13 20:02:53;;;;;;;0.40;0.40;;;1.30;92.50;;;;;;10472268;28;20209;-82
2024/01/13 20:07:57;;;;;;;0.30;0.30;;;1.20;92.60;;;;;;10468504;28;20800;-80
2024/01/13 20:12:59;;;;;;;0.40;0.40;;;1.20;92.50;;;;;;10477374;28;20192;-81
2024/01/13 20:18:02;;;;;;;0.40;0.40;;;1.20;92.60;;;;;;10471675;28;20221;-81
2024/01/13 20:23:06;;;;;;;0.30;0.30;;;1.20;92.60;;;;;;10472177;28;20750;-81
2024/01/13 20:28:08;;;;;;;0.40;0.40;;;1.20;92.50;;;;;;10476094;28;20216;-81
2024/01/13 20:33:11;;;;;;;0.40;0.40;;;1.20;92.20;;;;;;10470737;28;20189;-82
2024/01/13 20:38:15;;;;;;;0.40;0.40;;;1.20;92.20;;;;;;10482666;28;20269;-82
2024/01/13 20:43:18;;;;;;;0.40;0.40;;;1.20;92.50;;;;;;10459433;28;20228;-81
2024/01/13 20:48:20;;;;;;;0.40;0.40;;;1.20;92.30;;;;;;10465249;28;20768;-82
2024/01/13 20:53:24;;;;;;;0.30;0.30;;;1.20;92.10;;;;;;10456608;28;20258;-81
2024/01/13 20:58:26;;;;;;;0.40;0.40;;;1.20;92.20;;;;;;10479360;28;20228;-81
2024/01/13 21:03:29;;;;;;;0.40;0.40;;;1.20;92.00;;;;;;10468670;28;20225;-80
2024/01/13 21:08:33;;;;;;;0.20;0.20;;;1.20;92.10;;;;;;10486821;28;20220;-80
2024/01/13 21:13:35;;;;;;;0.30;0.30;;;1.10;92.20;;;;;;10458575;28;20194;-80
2024/01/13 21:18:38;;;;;;;0.40;0.40;;;1.10;92.30;;;;;;10480159;28;20254;-80
2024/01/13 21:23:41;;;;;;;0.30;0.30;;;1.20;92.40;;;;;;10474729;28;20774;-82
2024/01/13 21:28:44;;;;;;;0.50;0.50;;;1.10;92.10;;;;;;10479379;28;20227;-81
2024/01/13 21:33:46;;;;;;;0.30;0.30;;;1.10;92.30;;;;;;10475739;28;20205;-81
2024/01/13 21:38:50;;;;;;;0.40;0.40;;;1.10;92.40;;;;;;10460674;28;20212;-81
2024/01/13 21:43:52;;;;;;;0.30;0.30;;;1.10;92.50;;;;;;10449780;28;20225;-83
2024/01/13 21:48:55;;;;;;;0.30;0.30;;;1.10;92.20;;;;;;10470255;28;20233;-79
2024/01/13 21:53:59;;;;;;;0.30;0.30;;;1.10;92.30;;;;;;10468363;28;20201;-80
2024/01/13 21:59:03;;;;;;;0.40;0.40;;;1.10;92.50;;;;;;10471480;28;20225;-82
2024/01/13 22:04:06;;;;;;;0.30;0.30;;;1.20;92.40;;;;;;10462294;28;20208;-80
2024/01/13 22:09:11;;;;;;;0.30;0.30;;;1.20;92.20;;;;;;10473938;28;20241;-82
2024/01/13 22:14:14;;;;;;;0.30;0.30;;;1.20;92.30;;;;;;10481294;28;20203;-81
2024/01/13 22:19:16;;;;;;;0.30;0.30;;;1.20;92.40;;;;;;10449793;28;20213;-82
2024/01/13 22:24:20;;;;;;;0.40;0.40;;;1.20;92.30;;;;;;10476265;28;20221;-81
2024/01/13 22:29:23;;;;;;;0.27;0.27;;;1.20;92.30;;;;;;10436865;28;20530;-82
2024/01/13 22:34:25;;;;;;;0.30;0.30;;;1.20;92.20;;;;;;10456592;28;20212;-80
2024/01/13 22:39:29;;;;;;;0.40;0.40;;;1.10;92.40;;;;;;10475207;28;20708;-80
2024/01/13 22:44:32;;;;;;;0.30;0.30;;;1.20;92.40;;;;;;10450915;28;20691;-80
2024/01/13 22:49:34;;;;;;;0.40;0.40;;;1.10;92.20;;;;;;10459871;28;20698;-81
2024/01/13 22:54:44;;;;;;;0.33;0.33;;;1.10;92.30;;;;;;10441665;28;20196;-80
2024/01/13 22:59:46;;;;;;;0.40;0.40;;;1.10;92.30;;;;;;10507046;22;20622;-80
2024/01/13 23:04:48;;;;;;;0.30;0.30;;;1.10;92.40;;;;;;10524619;28;20243;-83
2024/01/13 23:09:52;;;;;;;0.20;0.20;;;1.10;92.10;;;;;;10504735;28;20224;-81
2024/01/13 23:14:54;;;;;;;0.20;0.20;;;1.10;92.40;;;;;;10479145;28;20197;-81
2024/01/13 23:19:57;;;;;;;0.40;0.40;;;1.10;92.30;;;;;;10483491;28;20221;-81
2024/01/13 23:25:01;;;;;;;0.40;0.40;;;1.10;92.50;;;;;;10469849;28;20632;-79
2024/01/13 23:30:04;;;;;;;0.33;0.33;;;1.10;92.60;;;;;;10465628;28;20221;-80
2024/01/13 23:35:10;;;;;;;0.40;0.40;;;1.10;92.60;;;;;;10449707;28;20201;-81
2024/01/13 23:40:15;;;;;;;0.40;0.40;;;1.10;92.50;;;;;;10463225;28;20310;-82
2024/01/13 23:45:18;;;;;;;0.30;0.30;;;1.20;92.20;;;;;;10462749;28;20287;-80
2024/01/13 23:50:21;;;;;;;0.30;0.30;;;1.20;92.00;;;;;;10446885;28;20577;-80
2024/01/13 23:55:25;;;;;;;0.40;0.40;;;1.20;92.20;;;;;;10463450;28;20227;-80
